EGWU - Northolt
Distance from station: E 5mi, 14km
Updated: 07/19/2018 10:50pm
Clear
Clear
 Wind from SE
Wind: SE 2 mph , 4 km/h
Temperature: 64°F , 18°C
Dew Point: 52°F , 11°C
Humidity: 64%
Barometer: 29.97 inHg , 1015 hPa
Summary: Clear
Visibility: greater than 7 miles , 10 km
2018/07/20 05:50 EGWU 200550Z 13002KT CAVOK 18/11 Q1015 NOSIG